Crawford, Oklahoma
Current Conditions -  °F | °C
As of 2:53 PM on Tuesday 21 Oct 2014 (Local Time) from KGAG Reporting Station
Broken Clouds Broken Clouds  
Wind Chill: 26°   Ceiling: 7000
Heat Index: 26°   Visibility: 10mi
Dew Point: 12°   Wind: 9mph
Humidity: 42%   Direction: 200°SSW
Pressure: 30.03"   Gusts: NA
Location:  35.83°N, 99.8°W
Report Text: KGAG 211953Z AUTO 20008KT 10SM FEW060 BKN070 26/12 A3003 RMK AO2 SLP149 T02610122
Loading
Personal Weather Stations






























Interactive Weather Map
Tropical Storm Tracking
New forecast layout! Learn more

10-Day Weather Forecast

Advertisements
Track Severe Weather on mobile